Rockdale, Texas
Current Conditions -  °F | °C
As of 12:35 AM on Wednesday 26 Nov 2014 (Local Time) from KT35 Reporting Station
Clear Clear  
Wind Chill: 41°   Ceiling: Unl
Heat Index: 46°   Visibility: 10mi
Dew Point: 34°   Wind: 9mph
Humidity: 62%   Direction: 200°SSW
Pressure: 30.17"   Gusts: NA
Location:  30.66°N, 97°W
Report Text: KT35 260635Z AUTO 20008KT 10SM CLR 08/01 A3017 RMK AO2 T00780010
Loading
Personal Weather Stations






























Interactive Weather Map New forecast layout! Learn more

10-Day Weather Forecast

Advertisements
Track Severe Weather on mobile